Time;durP1;ratioP1;P1;durP2;ratioP2;P2;SDS_P1;SDS_P2;PMS_P1;PMS_P2;Temp;Humidity;BMP_temperature;BMP_pressure;BME280_temperature;BME280_humidity;BME280_pressure;Samples;Min_cycle;Max_cycle;Signal;HPM_P1;HPM_P2
2023/08/09 00:00:32;;;;;;;2.53;1.90;;;12.20;99.90;;;;;;5107997;28;20026;-63
2023/08/09 00:02:59;;;;;;;4.53;2.00;;;12.20;99.90;;;;;;5088632;28;20044;-62
2023/08/09 00:05:25;;;;;;;3.97;2.22;;;12.10;99.90;;;;;;5088104;28;20038;-63
2023/08/09 00:07:50;;;;;;;2.20;1.80;;;12.10;99.90;;;;;;5091797;28;20400;-63
2023/08/09 00:10:16;;;;;;;2.80;2.08;;;12.00;99.90;;;;;;5078476;28;20116;-64
2023/08/09 00:12:41;;;;;;;4.78;2.30;;;12.00;99.90;;;;;;5076972;28;20039;-63
2023/08/09 00:15:07;;;;;;;2.45;2.00;;;11.90;99.90;;;;;;5090072;28;20567;-64
2023/08/09 00:17:33;;;;;;;2.50;2.05;;;11.90;99.90;;;;;;5086523;28;20035;-63
2023/08/09 00:19:59;;;;;;;3.22;1.88;;;11.90;99.90;;;;;;5081442;28;20107;-62
2023/08/09 00:22:24;;;;;;;5.68;2.08;;;11.80;99.90;;;;;;5076316;28;20496;-64
2023/08/09 00:24:50;;;;;;;2.13;1.85;;;11.80;99.90;;;;;;5072117;28;20028;-63
2023/08/09 00:27:15;;;;;;;1.83;1.65;;;11.70;99.90;;;;;;5066890;28;20027;-52
2023/08/09 00:29:40;;;;;;;2.80;1.90;;;11.60;99.90;;;;;;5072112;28;20085;-56
2023/08/09 00:32:07;;;;;;;3.35;1.98;;;11.60;99.90;;;;;;5078940;28;20123;-52
2023/08/09 00:34:32;;;;;;;3.67;1.88;;;11.50;99.90;;;;;;5087565;28;20037;-55
2023/08/09 00:36:58;;;;;;;5.30;1.65;;;11.50;99.90;;;;;;5081339;28;20040;-53
2023/08/09 00:39:23;;;;;;;2.05;1.60;;;11.40;99.90;;;;;;5080697;28;20024;-51
2023/08/09 00:41:49;;;;;;;2.45;1.73;;;11.40;99.90;;;;;;5071227;28;20411;-54
2023/08/09 00:44:14;;;;;;;4.00;1.63;;;11.40;99.90;;;;;;5087296;28;20039;-52
2023/08/09 00:46:40;;;;;;;2.60;1.95;;;11.30;99.90;;;;;;5088360;28;20028;-56
2023/08/09 00:49:05;;;;;;;1.67;1.52;;;11.30;99.90;;;;;;5073775;28;20040;-54
2023/08/09 00:51:31;;;;;;;3.15;1.50;;;11.30;99.90;;;;;;5089511;28;20085;-56
2023/08/09 00:53:57;;;;;;;3.25;1.70;;;11.20;99.90;;;;;;5078714;28;20039;-53
2023/08/09 00:56:22;;;;;;;3.67;1.92;;;11.20;99.90;;;;;;5085709;28;20024;-54
2023/08/09 00:58:48;;;;;;;2.67;1.98;;;11.20;99.90;;;;;;5079954;28;20020;-52
2023/08/09 01:01:13;;;;;;;1.85;1.50;;;11.20;99.90;;;;;;5096799;28;20032;-54
2023/08/09 01:03:39;;;;;;;3.25;1.60;;;11.30;99.90;;;;;;5087279;28;20499;-52
2023/08/09 01:06:32;;;;;;;1.75;1.50;;;11.20;99.90;;;;;;5081247;28;20021;-54
2023/08/09 01:09:08;;;;;;;1.80;1.70;;;11.20;99.90;;;;;;5098862;28;20130;-55
2023/08/09 01:11:48;;;;;;;2.30;1.48;;;11.20;99.90;;;;;;5072031;28;20081;-54
2023/08/09 01:14:16;;;;;;;1.80;1.42;;;11.30;99.90;;;;;;5088147;28;20020;-55
2023/08/09 01:16:44;;;;;;;3.28;1.63;;;11.30;99.90;;;;;;5103023;28;20027;-54
2023/08/09 01:19:20;;;;;;;1.73;1.33;;;11.30;99.90;;;;;;5087724;27;20050;-55
2023/08/09 01:21:46;;;;;;;1.70;1.30;;;11.30;99.90;;;;;;5076163;28;20421;-53
2023/08/09 01:24:12;;;;;;;2.45;1.38;;;11.30;99.90;;;;;;5111898;28;20038;-55
2023/08/09 01:26:39;;;;;;;2.47;1.73;;;11.30;99.90;;;;;;5092888;28;20028;-55
2023/08/09 01:29:05;;;;;;;3.17;1.67;;;11.40;99.90;;;;;;5111986;28;20027;-55
2023/08/09 01:31:30;;;;;;;2.20;1.63;;;11.30;99.90;;;;;;5092964;28;20450;-56
2023/08/09 01:33:56;;;;;;;4.75;1.73;;;11.30;99.90;;;;;;5112036;28;20028;-54
2023/08/09 01:36:29;;;;;;;3.00;1.80;;;11.40;99.90;;;;;;5092581;28;20461;-56
2023/08/09 01:39:06;;;;;;;4.15;2.00;;;11.30;99.90;;;;;;5086454;28;20434;-55
2023/08/09 01:41:33;;;;;;;3.10;1.65;;;11.30;99.90;;;;;;5072004;28;20329;-56
2023/08/09 01:43:58;;;;;;;1.88;1.50;;;11.30;99.90;;;;;;5111614;28;20028;-55
2023/08/09 01:46:25;;;;;;;1.58;1.48;;;11.30;99.90;;;;;;5092393;28;20027;-55
2023/08/09 01:48:51;;;;;;;2.38;1.77;;;11.30;99.90;;;;;;5111973;28;20038;-56
2023/08/09 01:51:16;;;;;;;2.80;1.13;;;11.30;99.90;;;;;;5111101;28;20023;-53
2023/08/09 01:53:42;;;;;;;1.55;1.38;;;11.30;99.90;;;;;;5092139;28;20093;-53
2023/08/09 01:56:07;;;;;;;2.15;1.60;;;11.30;99.90;;;;;;5111425;28;20119;-55
2023/08/09 01:58:33;;;;;;;1.42;1.17;;;11.30;99.90;;;;;;5092389;28;20399;-54
2023/08/09 02:00:58;;;;;;;2.60;1.60;;;11.30;99.90;;;;;;5111458;28;20049;-53
2023/08/09 02:03:26;;;;;;;4.22;1.55;;;11.30;99.90;;;;;;5092414;28;20032;-55
2023/08/09 02:05:52;;;;;;;2.35;1.38;;;11.30;99.90;;;;;;5111685;28;20035;-53
2023/08/09 02:08:18;;;;;;;1.55;1.33;;;11.30;99.90;;;;;;5092155;28;20032;-55
2023/08/09 02:10:43;;;;;;;2.80;1.75;;;11.30;99.90;;;;;;5111297;28;20517;-54
2023/08/09 02:13:08;;;;;;;2.83;1.77;;;11.30;99.90;;;;;;5091892;28;20036;-49
2023/08/09 02:15:35;;;;;;;2.13;1.45;;;11.30;99.90;;;;;;5088582;28;20530;-66
2023/08/09 02:18:00;;;;;;;1.90;1.67;;;11.30;99.90;;;;;;5110379;28;20024;-65
2023/08/09 02:20:27;;;;;;;1.90;1.60;;;11.30;99.90;;;;;;5088915;28;20166;-66
2023/08/09 02:22:53;;;;;;;3.72;1.70;;;11.30;99.90;;;;;;5111376;28;20026;-65
2023/08/09 02:25:18;;;;;;;2.55;1.30;;;11.30;99.90;;;;;;5091283;28;20119;-66
2023/08/09 02:27:44;;;;;;;5.20;1.58;;;11.30;99.90;;;;;;5110919;28;20043;-66
2023/08/09 02:30:10;;;;;;;3.47;1.42;;;11.30;99.90;;;;;;5096935;28;20537;-66
2023/08/09 02:32:36;;;;;;;2.08;1.50;;;11.30;99.90;;;;;;5111638;28;20042;-66
2023/08/09 02:35:03;;;;;;;1.50;1.30;;;11.30;99.90;;;;;;5090900;28;20028;-65
2023/08/09 02:37:29;;;;;;;1.77;1.45;;;11.30;99.90;;;;;;5111023;28;20020;-66
2023/08/09 02:39:55;;;;;;;2.72;1.58;;;11.30;99.90;;;;;;5091582;28;20492;-66
2023/08/09 02:42:20;;;;;;;2.03;1.40;;;11.30;99.90;;;;;;5110572;28;20028;-66
2023/08/09 02:44:46;;;;;;;2.00;1.20;;;11.30;99.90;;;;;;5091015;28;20031;-65
2023/08/09 02:47:11;;;;;;;2.42;1.45;;;11.30;99.90;;;;;;5110688;28;20118;-65
2023/08/09 02:49:37;;;;;;;2.22;1.60;;;11.30;99.90;;;;;;5094678;28;20072;-76
2023/08/09 02:52:03;;;;;;;4.00;1.45;;;11.30;99.90;;;;;;5111548;28;20607;-64
2023/08/09 02:54:29;;;;;;;4.68;1.73;;;11.30;99.90;;;;;;5090808;28;20043;-66
2023/08/09 02:56:54;;;;;;;3.40;1.30;;;11.30;99.90;;;;;;5110646;28;20031;-66
2023/08/09 02:59:20;;;;;;;3.72;1.35;;;11.30;99.90;;;;;;5089826;28;20032;-66
2023/08/09 03:01:45;;;;;;;2.92;1.52;;;11.30;99.90;;;;;;5110361;28;20119;-65
2023/08/09 03:04:11;;;;;;;2.05;1.85;;;11.30;99.90;;;;;;5090368;28;20111;-66
2023/08/09 03:06:36;;;;;;;1.95;1.50;;;11.30;99.90;;;;;;5110249;28;20028;-66
2023/08/09 03:09:02;;;;;;;1.50;1.27;;;11.30;99.90;;;;;;5074028;28;20033;-65
2023/08/09 03:11:28;;;;;;;1.80;1.33;;;11.30;99.90;;;;;;5109583;28;20027;-66
2023/08/09 03:13:54;;;;;;;3.25;1.38;;;11.20;99.90;;;;;;5093617;28;20031;-64
2023/08/09 03:16:20;;;;;;;1.52;1.42;;;11.20;99.90;;;;;;5090096;28;20442;-65
2023/08/09 03:18:46;;;;;;;3.72;1.30;;;11.20;99.90;;;;;;5110054;28;20106;-66
2023/08/09 03:21:12;;;;;;;3.33;1.35;;;11.10;99.90;;;;;;5107416;28;20028;-66
2023/08/09 03:23:38;;;;;;;4.50;1.55;;;11.10;99.90;;;;;;5089247;28;20055;-65
2023/08/09 03:26:04;;;;;;;2.08;1.70;;;11.00;99.90;;;;;;5091634;28;20207;-66
2023/08/09 03:28:30;;;;;;;3.67;1.83;;;11.00;99.90;;;;;;5109777;28;20487;-66
2023/08/09 03:30:56;;;;;;;3.42;1.50;;;11.00;99.90;;;;;;5089041;28;20056;-66
2023/08/09 03:33:22;;;;;;;3.00;1.63;;;11.00;99.90;;;;;;5109591;28;20032;-65
2023/08/09 03:35:47;;;;;;;2.45;1.52;;;11.00;99.90;;;;;;5089963;28;20044;-67
2023/08/09 03:38:13;;;;;;;1.58;1.40;;;11.10;99.90;;;;;;5109649;28;20032;-66
2023/08/09 03:40:39;;;;;;;2.65;1.40;;;11.10;99.90;;;;;;5090737;28;20035;-67
2023/08/09 03:43:05;;;;;;;1.27;1.15;;;11.10;99.90;;;;;;5109556;28;20199;-67
2023/08/09 03:45:31;;;;;;;2.78;1.40;;;11.10;99.90;;;;;;5090543;28;20400;-66
2023/08/09 03:47:56;;;;;;;3.65;1.58;;;11.10;99.90;;;;;;5090868;28;20028;-66
2023/08/09 03:50:22;;;;;;;2.13;1.60;;;11.10;99.90;;;;;;5094849;28;20419;-65
2023/08/09 03:52:47;;;;;;;3.33;1.52;;;11.10;99.90;;;;;;5109143;28;20042;-66
2023/08/09 03:55:13;;;;;;;1.83;1.33;;;11.20;99.90;;;;;;5090160;28;20097;-65
2023/08/09 03:57:38;;;;;;;1.70;1.60;;;11.30;99.90;;;;;;5092020;28;20028;-66
2023/08/09 04:00:04;;;;;;;5.43;1.90;;;11.30;99.90;;;;;;5109179;28;20036;-67
2023/08/09 04:02:30;;;;;;;1.70;1.60;;;11.40;99.90;;;;;;5087825;28;20024;-66
2023/08/09 04:04:55;;;;;;;2.38;1.98;;;11.40;99.90;;;;;;5090314;28;20020;-66
2023/08/09 04:07:21;;;;;;;2.15;1.63;;;11.50;99.90;;;;;;5083489;28;20020;-66
2023/08/09 04:09:46;;;;;;;3.55;1.42;;;11.50;99.90;;;;;;5106981;28;20221;-67
2023/08/09 04:12:12;;;;;;;1.55;1.45;;;11.60;99.90;;;;;;5089923;28;20122;-66
2023/08/09 04:14:37;;;;;;;1.50;1.40;;;11.70;99.90;;;;;;5096933;28;20043;-66
2023/08/09 04:17:04;;;;;;;2.00;1.58;;;11.70;99.90;;;;;;5099082;28;20430;-65
2023/08/09 04:19:30;;;;;;;2.63;1.73;;;11.70;99.90;;;;;;5107108;28;20088;-65
2023/08/09 04:21:55;;;;;;;5.05;1.65;;;11.80;99.90;;;;;;5109747;28;20035;-66
2023/08/09 04:24:21;;;;;;;1.80;1.48;;;11.80;99.90;;;;;;5089848;28;20024;-65
2023/08/09 04:26:47;;;;;;;2.03;1.60;;;11.90;99.90;;;;;;5095286;28;20409;-65
2023/08/09 04:29:12;;;;;;;1.45;1.30;;;11.90;99.90;;;;;;5108185;28;20028;-66
2023/08/09 04:31:38;;;;;;;4.28;1.38;;;12.00;99.90;;;;;;5089503;28;20052;-66
2023/08/09 04:34:04;;;;;;;4.13;1.52;;;12.00;99.90;;;;;;5108615;28;20032;-66
2023/08/09 04:36:31;;;;;;;2.13;1.50;;;12.10;99.90;;;;;;5086579;28;20020;-66
2023/08/09 04:38:57;;;;;;;1.73;1.30;;;12.20;99.90;;;;;;5108721;28;20019;-66
2023/08/09 04:41:22;;;;;;;2.28;1.70;;;12.30;99.90;;;;;;5087800;28;20031;-65
2023/08/09 04:43:48;;;;;;;1.63;1.33;;;13.20;99.90;;;;;;5108532;28;20020;-66
2023/08/09 04:46:14;;;;;;;2.90;1.40;;;13.70;99.90;;;;;;5088765;28;20035;-65
2023/08/09 04:48:41;;;;;;;1.60;1.50;;;13.80;99.90;;;;;;5089992;28;20488;-66
2023/08/09 04:51:08;;;;;;;2.15;1.38;;;13.70;99.90;;;;;;5087453;28;20027;-66
2023/08/09 04:53:34;;;;;;;3.25;1.40;;;14.10;99.90;;;;;;5108697;28;20039;-66
2023/08/09 04:55:59;;;;;;;2.78;1.20;;;15.10;99.90;;;;;;5089379;28;20027;-65
2023/08/09 04:58:25;;;;;;;1.23;1.13;;;16.20;99.90;;;;;;5087480;28;20396;-65
2023/08/09 05:00:50;;;;;;;2.00;0.80;;;17.30;99.90;;;;;;5108351;28;20031;-66
2023/08/09 05:03:16;;;;;;;1.35;1.08;;;18.20;99.90;;;;;;5089197;28;20608;-65
2023/08/09 05:05:41;;;;;;;3.22;1.20;;;18.60;99.90;;;;;;5108294;28;20035;-66
2023/08/09 05:08:07;;;;;;;1.88;1.13;;;19.00;99.90;;;;;;5088490;28;20028;-66
2023/08/09 05:10:35;;;;;;;1.30;1.20;;;19.40;99.30;;;;;;5084974;28;20237;-65
2023/08/09 05:13:00;;;;;;;1.27;1.10;;;19.40;98.90;;;;;;5108065;28;20613;-64
2023/08/09 05:15:26;;;;;;;3.03;1.10;;;19.80;97.60;;;;;;5086323;28;20420;-64
2023/08/09 05:17:51;;;;;;;2.30;1.00;;;20.80;96.30;;;;;;5086358;28;20059;-63
2023/08/09 05:20:17;;;;;;;3.92;0.88;;;21.80;92.60;;;;;;5094173;28;20115;-64
2023/08/09 05:22:43;;;;;;;1.95;1.05;;;22.40;91.60;;;;;;5108101;28;20126;-64
2023/08/09 05:25:08;;;;;;;1.20;1.10;;;22.20;90.80;;;;;;5088903;28;20081;-63
2023/08/09 05:27:34;;;;;;;2.22;1.00;;;22.40;88.20;;;;;;5098948;28;20537;-64
2023/08/09 05:29:59;;;;;;;1.20;0.90;;;23.10;87.10;;;;;;5096273;28;20031;-64
2023/08/09 05:32:25;;;;;;;2.30;1.00;;;23.60;84.70;;;;;;5108872;28;20032;-63
2023/08/09 05:34:50;;;;;;;2.20;1.30;;;23.80;82.80;;;;;;5089082;28;20107;-64
2023/08/09 05:37:16;;;;;;;1.40;1.00;;;23.80;82.50;;;;;;5101523;28;20050;-64
2023/08/09 05:39:42;;;;;;;1.30;1.00;;;23.60;80.90;;;;;;5096283;28;20052;-64
2023/08/09 05:42:07;;;;;;;2.28;1.27;;;23.50;79.70;;;;;;5107272;28;20525;-64
2023/08/09 05:44:34;;;;;;;1.15;0.93;;;23.20;79.20;;;;;;5088724;28;20039;-64
2023/08/09 05:47:00;;;;;;;2.90;1.13;;;23.00;78.90;;;;;;5104084;28;20035;-63
2023/08/09 05:49:26;;;;;;;0.95;0.90;;;23.00;78.70;;;;;;5106042;28;20036;-63
2023/08/09 05:51:53;;;;;;;1.70;1.23;;;22.80;77.70;;;;;;5090457;28;20421;-63
2023/08/09 05:54:18;;;;;;;2.80;1.27;;;22.50;76.80;;;;;;5108477;28;20058;-63
2023/08/09 05:56:44;;;;;;;2.28;1.00;;;22.20;76.30;;;;;;5091653;28;20067;-64
2023/08/09 05:59:10;;;;;;;2.67;1.08;;;22.40;76.50;;;;;;5092114;28;20028;-65
2023/08/09 06:01:35;;;;;;;2.55;1.42;;;23.20;74.00;;;;;;5111412;28;20020;-64
2023/08/09 06:04:01;;;;;;;1.25;0.90;;;24.30;71.30;;;;;;5090398;28;20027;-63
2023/08/09 06:06:27;;;;;;;1.88;1.15;;;25.50;68.30;;;;;;5111759;28;20042;-63
2023/08/09 06:08:52;;;;;;;1.15;0.93;;;26.70;65.00;;;;;;5091988;28;20107;-64
2023/08/09 06:11:19;;;;;;;2.80;1.13;;;27.70;61.60;;;;;;5111617;28;20115;-64
2023/08/09 06:13:45;;;;;;;0.80;0.80;;;28.60;58.10;;;;;;5093548;28;20032;-64
2023/08/09 06:16:10;;;;;;;1.27;0.93;;;29.30;55.10;;;;;;5107083;28;20027;-63
2023/08/09 06:18:36;;;;;;;2.80;1.17;;;29.70;53.00;;;;;;5078538;28;20095;-63
2023/08/09 06:21:01;;;;;;;1.45;1.20;;;29.10;50.60;;;;;;5110703;28;20035;-63
2023/08/09 06:23:27;;;;;;;1.23;0.50;;;29.60;49.40;;;;;;5092404;28;20119;-63
2023/08/09 06:25:53;;;;;;;1.55;0.98;;;30.50;46.70;;;;;;5111379;28;20055;-63
2023/08/09 06:28:19;;;;;;;2.08;0.90;;;31.30;44.40;;;;;;5091271;28;20074;-64
2023/08/09 06:30:45;;;;;;;1.45;0.90;;;31.90;40.30;;;;;;5096053;28;20049;-63
2023/08/09 06:33:11;;;;;;;4.43;1.17;;;32.60;37.60;;;;;;5095791;28;20047;-63
2023/08/09 06:35:37;;;;;;;1.80;0.88;;;33.00;32.90;;;;;;5086077;28;20143;-64
2023/08/09 06:38:03;;;;;;;3.30;1.00;;;33.50;30.10;;;;;;5110458;28;20451;-63
2023/08/09 06:40:28;;;;;;;1.90;0.80;;;34.20;28.30;;;;;;5088004;28;20500;-64
2023/08/09 06:42:54;;;;;;;1.67;0.90;;;34.80;26.30;;;;;;5110457;28;20027;-64
2023/08/09 06:45:19;;;;;;;2.80;0.90;;;35.40;24.50;;;;;;5078955;28;20042;-63
2023/08/09 06:47:45;;;;;;;2.33;1.00;;;35.70;22.30;;;;;;5111108;28;20101;-64
2023/08/09 06:50:10;;;;;;;3.85;1.00;;;34.90;21.30;;;;;;5091576;28;20032;-63
2023/08/09 06:52:37;;;;;;;1.88;1.00;;;33.30;21.40;;;;;;5101951;28;20051;-63
2023/08/09 06:55:03;;;;;;;2.53;0.90;;;31.60;21.70;;;;;;5110452;28;20027;-63
2023/08/09 06:57:29;;;;;;;2.00;1.15;;;30.20;22.10;;;;;;5077295;28;20028;-64
2023/08/09 06:59:55;;;;;;;1.25;0.88;;;29.10;22.30;;;;;;5089546;28;20043;-63
2023/08/09 07:02:20;;;;;;;1.90;1.10;;;28.30;22.90;;;;;;5096631;28;20035;-64
2023/08/09 07:04:47;;;;;;;3.65;0.93;;;27.80;23.10;;;;;;5090964;28;20125;-63
2023/08/09 07:07:13;;;;;;;1.15;0.93;;;28.20;22.60;;;;;;5110769;28;20039;-63
2023/08/09 07:09:38;;;;;;;3.35;0.98;;;29.50;21.30;;;;;;5080380;28;20024;-63
2023/08/09 07:12:04;;;;;;;4.38;1.10;;;29.80;20.10;;;;;;5110293;28;20032;-63
2023/08/09 07:14:30;;;;;;;2.63;0.80;;;29.40;20.20;;;;;;5088218;28;20024;-62
2023/08/09 07:16:55;;;;;;;1.73;0.70;;;29.20;20.30;;;;;;5080540;28;20020;-63
2023/08/09 07:19:21;;;;;;;3.00;0.95;;;29.20;20.60;;;;;;5069746;28;20029;-62
2023/08/09 07:21:47;;;;;;;1.88;0.88;;;29.60;19.90;;;;;;5080701;28;20025;-64
2023/08/09 07:24:12;;;;;;;1.48;0.77;;;30.10;19.30;;;;;;5109841;28;20732;-63
2023/08/09 07:26:38;;;;;;;2.10;1.13;;;30.50;18.30;;;;;;5078716;28;20510;-63
2023/08/09 07:29:03;;;;;;;2.00;0.90;;;30.80;17.80;;;;;;5100308;28;20013;-62
2023/08/09 07:31:29;;;;;;;3.22;1.15;;;30.90;17.50;;;;;;5087068;28;20410;-63
2023/08/09 07:33:54;;;;;;;3.42;1.05;;;30.80;16.60;;;;;;5097955;28;20585;-62
2023/08/09 07:36:20;;;;;;;4.82;1.75;;;30.40;17.10;;;;;;5087885;28;20078;-63
2023/08/09 07:38:46;;;;;;;6.88;1.30;;;30.10;17.10;;;;;;5091173;28;20081;-63
2023/08/09 07:41:11;;;;;;;2.50;1.27;;;29.90;17.10;;;;;;5109846;28;20662;-63
2023/08/09 07:43:37;;;;;;;1.35;0.90;;;29.80;16.80;;;;;;5090691;28;20058;-63
2023/08/09 07:46:05;;;;;;;2.58;1.02;;;29.60;16.90;;;;;;5109644;28;20035;-62
2023/08/09 07:48:33;;;;;;;1.63;0.90;;;29.50;16.80;;;;;;5090342;28;20028;-63
2023/08/09 07:50:59;;;;;;;2.75;1.02;;;29.50;16.30;;;;;;5108786;28;20027;-62
2023/08/09 07:53:25;;;;;;;2.40;0.98;;;29.60;16.10;;;;;;5090297;28;20048;-62
2023/08/09 07:55:50;;;;;;;5.22;1.08;;;29.30;15.70;;;;;;5109555;28;20042;-63
2023/08/09 07:58:16;;;;;;;2.30;0.80;;;29.00;15.90;;;;;;5090349;28;20066;-62
2023/08/09 08:00:42;;;;;;;4.35;1.05;;;28.50;15.40;;;;;;5109506;28;20674;-62
2023/08/09 08:03:09;;;;;;;2.20;1.10;;;28.00;16.40;;;;;;5090275;28;20377;-63
2023/08/09 08:05:34;;;;;;;2.50;0.98;;;27.70;16.70;;;;;;5109649;28;20015;-63
2023/08/09 08:08:00;;;;;;;2.75;0.90;;;27.30;16.70;;;;;;5088236;28;20594;-62
2023/08/09 08:10:26;;;;;;;5.53;1.15;;;27.10;17.10;;;;;;5109305;28;20028;-63
2023/08/09 08:12:51;;;;;;;5.53;1.27;;;27.00;17.30;;;;;;5090130;28;20621;-63
2023/08/09 08:15:18;;;;;;;1.65;0.75;;;27.20;17.20;;;;;;5106144;28;20028;-62
2023/08/09 08:17:46;;;;;;;3.80;1.15;;;27.50;17.20;;;;;;5089317;28;20059;-63
2023/08/09 08:20:15;;;;;;;3.22;1.02;;;27.70;16.80;;;;;;5109408;28;20024;-63
2023/08/09 08:22:49;;;;;;;2.17;1.10;;;27.80;17.20;;;;;;5089507;28;20036;-63
2023/08/09 08:25:15;;;;;;;1.98;0.88;;;27.80;15.90;;;;;;5069369;28;20029;-63
2023/08/09 08:27:45;;;;;;;1.88;1.00;;;27.80;17.00;;;;;;5108989;28;20123;-63
2023/08/09 08:30:16;;;;;;;4.05;1.27;;;27.90;16.20;;;;;;5080140;28;20043;-63
2023/08/09 08:32:43;;;;;;;3.42;0.95;;;27.80;16.60;;;;;;5108562;28;20080;-63
2023/08/09 08:35:13;;;;;;;3.97;1.02;;;27.70;16.70;;;;;;5089849;28;20024;-63
2023/08/09 08:37:39;;;;;;;1.95;1.10;;;27.60;16.90;;;;;;5099679;28;20032;-63
2023/08/09 08:40:11;;;;;;;3.25;1.02;;;27.40;16.90;;;;;;5108960;28;20120;-63
2023/08/09 08:42:36;;;;;;;4.10;0.95;;;27.20;17.10;;;;;;5069181;28;20024;-62
2023/08/09 08:45:09;;;;;;;3.05;0.90;;;27.10;17.10;;;;;;5108225;28;20556;-62
2023/08/09 08:47:38;;;;;;;3.30;1.10;;;27.00;17.30;;;;;;5069241;28;20055;-63
2023/08/09 08:50:05;;;;;;;1.60;0.90;;;26.80;17.30;;;;;;5107934;28;20073;-63
2023/08/09 08:52:33;;;;;;;3.05;1.10;;;26.80;17.60;;;;;;5089417;28;20523;-63
2023/08/09 08:54:59;;;;;;;4.03;1.10;;;26.90;17.80;;;;;;5108939;28;20032;-61
2023/08/09 08:57:26;;;;;;;1.77;0.90;;;27.00;17.80;;;;;;5089614;28;20050;-62
2023/08/09 08:59:52;;;;;;;1.48;1.00;;;27.00;17.70;;;;;;5108876;28;20081;-62
2023/08/09 09:02:19;;;;;;;3.70;1.13;;;27.10;17.80;;;;;;5089563;28;20028;-62
2023/08/09 09:04:45;;;;;;;1.67;0.70;;;27.00;17.60;;;;;;5108804;28;20024;-63
2023/08/09 09:07:11;;;;;;;2.78;0.93;;;26.80;17.30;;;;;;5086223;28;20024;-62
2023/08/09 09:09:55;;;;;;;1.95;0.98;;;26.70;17.40;;;;;;5089209;28;20036;-62
2023/08/09 09:12:21;;;;;;;2.67;0.75;;;26.70;17.50;;;;;;5068649;28;20028;-62
2023/08/09 09:14:51;;;;;;;2.33;0.90;;;26.60;18.00;;;;;;5091588;28;20024;-63
2023/08/09 09:17:17;;;;;;;3.08;1.05;;;26.60;18.10;;;;;;5067579;28;20037;-63
2023/08/09 09:19:43;;;;;;;2.05;0.63;;;26.70;18.20;;;;;;5108102;28;20026;-63
2023/08/09 09:22:09;;;;;;;2.03;0.90;;;26.80;17.70;;;;;;5089311;28;20028;-63
2023/08/09 09:24:35;;;;;;;1.75;0.80;;;27.10;17.80;;;;;;5108533;28;20031;-63
2023/08/09 09:27:00;;;;;;;2.55;0.90;;;27.00;17.50;;;;;;5089235;28;20380;-62
2023/08/09 09:29:33;;;;;;;2.50;0.75;;;27.00;17.30;;;;;;5112418;28;20033;-63
2023/08/09 09:31:59;;;;;;;4.70;1.08;;;26.80;17.30;;;;;;5072434;28;20451;-62
2023/08/09 09:34:29;;;;;;;1.15;0.70;;;26.60;17.30;;;;;;5111894;28;20034;-64
2023/08/09 09:36:55;;;;;;;2.92;1.63;;;26.20;17.20;;;;;;5073200;28;20032;-63
2023/08/09 09:39:21;;;;;;;3.63;0.98;;;26.00;17.40;;;;;;5113011;28;20076;-63
2023/08/09 09:41:50;;;;;;;3.03;1.00;;;25.80;17.50;;;;;;5091635;28;20024;-63
2023/08/09 09:44:23;;;;;;;2.40;0.98;;;25.60;17.80;;;;;;5112683;28;20032;-63
2023/08/09 09:46:57;;;;;;;1.92;0.77;;;25.40;18.10;;;;;;5091670;28;20024;-63
2023/08/09 09:49:23;;;;;;;2.10;0.70;;;25.20;18.10;;;;;;5072123;28;20116;-64
2023/08/09 09:51:50;;;;;;;2.33;0.70;;;25.00;18.20;;;;;;5111521;28;20096;-63
2023/08/09 09:54:16;;;;;;;1.83;0.77;;;24.80;18.20;;;;;;5092580;28;20028;-63
2023/08/09 09:56:42;;;;;;;3.45;0.98;;;24.60;18.40;;;;;;5111970;28;20113;-63
2023/08/09 09:59:07;;;;;;;3.72;0.77;;;24.50;18.60;;;;;;5092828;28;20040;-62
2023/08/09 10:01:39;;;;;;;2.92;0.80;;;24.30;18.80;;;;;;5111927;28;20032;-63
2023/08/09 10:04:06;;;;;;;1.27;0.70;;;24.30;18.80;;;;;;5071944;28;20024;-64
2023/08/09 10:06:35;;;;;;;1.77;0.68;;;24.20;19.10;;;;;;5110187;28;20027;-63
2023/08/09 10:09:01;;;;;;;1.15;0.80;;;24.00;19.10;;;;;;5090167;28;20031;-62
2023/08/09 10:11:28;;;;;;;2.13;0.70;;;23.90;19.10;;;;;;5111741;28;20032;-63
2023/08/09 10:13:58;;;;;;;1.40;0.75;;;23.80;19.40;;;;;;5091073;28;20031;-62
2023/08/09 10:16:26;;;;;;;3.55;0.80;;;23.60;19.40;;;;;;5112309;28;20016;-63
2023/08/09 10:18:57;;;;;;;2.30;0.95;;;23.60;19.60;;;;;;5091996;28;20028;-63
2023/08/09 10:21:24;;;;;;;2.88;0.88;;;23.50;19.80;;;;;;5071581;28;20039;-63
2023/08/09 10:24:09;;;;;;;5.65;0.82;;;23.50;20.00;;;;;;5111319;28;20031;-63
2023/08/09 10:26:39;;;;;;;2.00;0.70;;;23.70;20.00;;;;;;5071474;28;20060;-63
2023/08/09 10:29:12;;;;;;;2.60;0.77;;;23.70;20.00;;;;;;5111184;28;20038;-63
2023/08/09 10:31:51;;;;;;;2.55;0.73;;;23.70;20.00;;;;;;5071348;28;20060;-63
2023/08/09 10:34:20;;;;;;;3.70;1.08;;;23.60;20.60;;;;;;5110312;28;20124;-63
2023/08/09 10:36:53;;;;;;;2.78;0.52;;;23.40;20.50;;;;;;5089544;28;20024;-62
2023/08/09 10:39:19;;;;;;;2.25;0.80;;;23.50;21.30;;;;;;5090756;28;20028;-63
2023/08/09 10:41:58;;;;;;;3.70;0.85;;;23.20;21.30;;;;;;5111023;28;20047;-63
2023/08/09 10:44:35;;;;;;;2.53;0.82;;;23.30;21.90;;;;;;5091268;28;20079;-63
2023/08/09 10:47:13;;;;;;;1.98;0.80;;;23.30;21.30;;;;;;5110898;28;20043;-62
2023/08/09 10:49:48;;;;;;;1.85;0.90;;;23.40;21.20;;;;;;5071183;28;20020;-63
2023/08/09 10:52:15;;;;;;;1.37;0.60;;;23.50;20.70;;;;;;5110176;28;20539;-62
2023/08/09 10:54:41;;;;;;;1.75;0.70;;;23.70;20.60;;;;;;5091445;28;20035;-63
2023/08/09 10:57:11;;;;;;;2.53;0.90;;;23.80;20.40;;;;;;5110538;28;20028;-62
2023/08/09 10:59:38;;;;;;;1.33;0.77;;;24.00;20.80;;;;;;5091078;28;20032;-63
2023/08/09 11:02:04;;;;;;;3.15;0.73;;;24.10;20.30;;;;;;5110871;28;20088;-62
2023/08/09 11:04:29;;;;;;;1.17;0.90;;;24.10;20.20;;;;;;5091381;28;20116;-63
2023/08/09 11:06:55;;;;;;;2.33;0.82;;;24.10;20.10;;;;;;5106664;28;20490;-62
2023/08/09 11:09:22;;;;;;;3.22;0.75;;;24.10;20.00;;;;;;5090905;28;20063;-63
2023/08/09 11:11:49;;;;;;;1.45;0.90;;;24.20;19.90;;;;;;5110544;28;20028;-63
2023/08/09 11:14:17;;;;;;;2.17;0.70;;;24.30;19.70;;;;;;5094324;28;20690;-63
2023/08/09 11:16:46;;;;;;;1.85;0.82;;;24.30;19.60;;;;;;5111154;28;20091;-63
2023/08/09 11:19:17;;;;;;;2.20;1.00;;;24.10;20.00;;;;;;5090752;28;20031;-61
2023/08/09 11:21:51;;;;;;;1.30;0.65;;;24.20;20.20;;;;;;5070561;28;20032;-62
2023/08/09 11:24:18;;;;;;;3.50;0.85;;;24.10;20.20;;;;;;5070359;28;20028;-62
2023/08/09 11:26:52;;;;;;;3.60;1.02;;;24.20;20.00;;;;;;5110116;28;20035;-62
2023/08/09 11:29:19;;;;;;;1.40;0.80;;;24.20;19.70;;;;;;5070276;28;20036;-62
2023/08/09 11:31:48;;;;;;;2.38;0.95;;;24.30;19.70;;;;;;5109645;28;20047;-63
2023/08/09 11:34:15;;;;;;;0.90;0.70;;;24.40;19.50;;;;;;5089025;28;20543;-62
2023/08/09 11:36:42;;;;;;;1.73;0.80;;;24.50;19.50;;;;;;5108317;28;20119;-62
2023/08/09 11:39:10;;;;;;;1.67;0.90;;;24.50;19.80;;;;;;5109670;28;20023;-62
2023/08/09 11:41:42;;;;;;;3.90;1.00;;;24.40;19.50;;;;;;5090427;28;20319;-63
2023/08/09 11:44:08;;;;;;;1.23;0.88;;;24.50;19.60;;;;;;5109914;28;20465;-63
2023/08/09 11:46:33;;;;;;;3.88;1.25;;;24.50;19.50;;;;;;5090803;28;20547;-63
2023/08/09 11:49:03;;;;;;;3.15;1.20;;;24.50;19.10;;;;;;5109644;28;20089;-62
2023/08/09 11:51:32;;;;;;;2.65;0.85;;;24.50;18.50;;;;;;5089537;28;20106;-62
2023/08/09 11:53:58;;;;;;;1.40;0.68;;;24.60;18.80;;;;;;5110000;28;20027;-63
2023/08/09 11:56:24;;;;;;;4.32;1.08;;;24.50;18.70;;;;;;5090509;28;20559;-63
2023/08/09 11:58:53;;;;;;;3.00;0.65;;;24.40;18.70;;;;;;5109687;28;20104;-62
2023/08/09 12:01:24;;;;;;;2.28;0.70;;;24.30;18.90;;;;;;5089828;28;20530;-62
2023/08/09 12:03:52;;;;;;;1.23;0.80;;;24.20;18.60;;;;;;5109726;28;20122;-62
2023/08/09 12:06:18;;;;;;;1.95;1.17;;;24.10;18.80;;;;;;5089956;28;20502;-63
2023/08/09 12:08:44;;;;;;;1.63;0.85;;;24.00;19.00;;;;;;5090561;28;20028;-62
2023/08/09 12:11:15;;;;;;;1.13;0.70;;;24.00;19.30;;;;;;5109289;28;20038;-62
2023/08/09 12:13:41;;;;;;;2.03;0.90;;;24.00;19.30;;;;;;5071682;28;20480;-62
2023/08/09 12:16:07;;;;;;;2.30;0.60;;;24.00;19.30;;;;;;5107520;28;20031;-62
2023/08/09 12:18:36;;;;;;;2.58;0.82;;;24.10;19.40;;;;;;5090138;28;20028;-63
2023/08/09 12:21:05;;;;;;;2.50;0.90;;;24.10;19.40;;;;;;5109683;28;20096;-62
2023/08/09 12:23:31;;;;;;;1.08;0.90;;;24.00;19.50;;;;;;5089592;28;20020;-63
2023/08/09 12:25:57;;;;;;;2.13;0.98;;;23.90;19.70;;;;;;5109093;28;20023;-62
2023/08/09 12:28:22;;;;;;;2.90;0.98;;;23.70;19.60;;;;;;5089992;28;20039;-62
2023/08/09 12:30:48;;;;;;;1.38;0.80;;;23.60;19.80;;;;;;5098020;28;20062;-62
2023/08/09 12:33:13;;;;;;;2.53;0.90;;;23.60;20.30;;;;;;5108912;28;20536;-62
2023/08/09 12:35:39;;;;;;;2.42;0.73;;;23.40;20.20;;;;;;5089873;28;20040;-62
2023/08/09 12:38:04;;;;;;;1.95;1.00;;;23.20;20.50;;;;;;5095415;28;20085;-62
2023/08/09 12:40:30;;;;;;;1.45;0.70;;;23.10;20.60;;;;;;5108924;28;20502;-62
2023/08/09 12:42:56;;;;;;;3.03;0.85;;;22.80;21.20;;;;;;5089976;28;20110;-63
2023/08/09 12:45:21;;;;;;;2.20;0.93;;;22.60;21.60;;;;;;5108971;28;20059;-62